createdAt,value
2023-03-06T00:00:20.864Z,3.05
2023-03-06T00:01:22.098Z,3.04
2023-03-06T00:02:23.376Z,3.03
2023-03-06T00:03:25.044Z,3.05
2023-03-06T00:04:26.339Z,3.05
2023-03-06T00:05:27.797Z,3.05
2023-03-06T00:06:29.033Z,3.04
2023-03-06T00:07:30.216Z,3.03
2023-03-06T00:08:31.436Z,3.03
2023-03-06T00:09:33.915Z,3.01
2023-03-06T00:10:35.130Z,3.01
2023-03-06T00:11:36.443Z,2.98
2023-03-06T00:12:37.650Z,2.99
2023-03-06T00:13:38.843Z,2.99
2023-03-06T00:14:40.155Z,2.99
2023-03-06T00:15:41.909Z,2.98
2023-03-06T00:16:43.100Z,2.98
2023-03-06T00:17:44.405Z,3.00
2023-03-06T00:18:45.646Z,3.01
2023-03-06T00:19:46.912Z,2.99
2023-03-06T00:20:48.213Z,2.99
2023-03-06T00:21:49.577Z,2.97
2023-03-06T00:22:51.361Z,2.97
2023-03-06T00:23:52.602Z,2.95
2023-03-06T00:24:53.934Z,2.98
2023-03-06T00:25:55.235Z,2.99
2023-03-06T00:26:56.508Z,2.98
2023-03-06T00:27:57.768Z,2.95
2023-03-06T00:28:59.429Z,2.95
2023-03-06T00:30:01.060Z,2.97
2023-03-06T00:31:02.557Z,2.95
2023-03-06T00:32:03.878Z,2.94
2023-03-06T00:33:05.176Z,2.93
2023-03-06T00:34:06.424Z,2.91
2023-03-06T00:35:07.878Z,2.89
2023-03-06T00:36:09.290Z,2.91
2023-03-06T00:37:10.589Z,2.89
2023-03-06T00:38:12.174Z,2.89
2023-03-06T00:39:13.488Z,2.89
2023-03-06T00:40:16.455Z,2.88
2023-03-06T00:41:17.756Z,2.87
2023-03-06T00:42:19.395Z,2.89
2023-03-06T00:43:20.641Z,2.88
2023-03-06T00:44:21.869Z,2.87
2023-03-06T00:45:23.223Z,2.90
2023-03-06T00:46:24.583Z,2.89
2023-03-06T00:47:25.849Z,2.90
2023-03-06T00:48:27.080Z,2.87
2023-03-06T00:49:28.299Z,2.89
2023-03-06T00:50:29.520Z,2.89
2023-03-06T00:51:30.792Z,2.87
2023-03-06T00:52:32.194Z,2.86
2023-03-06T00:53:33.422Z,2.85
2023-03-06T00:54:35.983Z,2.82
2023-03-06T00:55:37.261Z,2.81
2023-03-06T00:56:38.493Z,2.79
2023-03-06T00:57:40.146Z,2.80
2023-03-06T00:58:41.397Z,2.80
2023-03-06T00:59:42.728Z,2.79
2023-03-06T01:00:44.590Z,2.79
2023-03-06T01:01:46.019Z,2.78
2023-03-06T01:02:48.296Z,2.80
2023-03-06T01:03:49.533Z,2.79
2023-03-06T01:04:50.773Z,2.79
2023-03-06T01:05:52.007Z,2.79
2023-03-06T01:06:53.338Z,2.83
2023-03-06T01:07:54.615Z,2.82
2023-03-06T01:08:55.831Z,2.82
2023-03-06T01:10:01.941Z,2.82
2023-03-06T01:11:03.293Z,2.82
2023-03-06T01:12:05.096Z,2.82
2023-03-06T01:13:06.592Z,2.82
2023-03-06T01:14:07.836Z,2.84
2023-03-06T01:15:09.392Z,2.85
2023-03-06T01:16:14.534Z,2.85
2023-03-06T01:17:15.790Z,2.89
2023-03-06T01:18:17.750Z,2.89
2023-03-06T01:19:19.256Z,2.89
2023-03-06T01:20:20.469Z,2.87
2023-03-06T01:21:21.663Z,2.86
2023-03-06T01:22:22.885Z,2.86
2023-03-06T01:23:24.102Z,2.85
2023-03-06T01:24:25.366Z,2.86
2023-03-06T01:25:27.055Z,2.87
2023-03-06T01:26:28.365Z,2.86
2023-03-06T01:27:29.598Z,2.86
2023-03-06T01:28:30.893Z,2.87
2023-03-06T01:29:32.173Z,2.86
2023-03-06T01:30:33.550Z,2.87
2023-03-06T01:31:35.686Z,2.87
2023-03-06T01:32:37.310Z,2.86
2023-03-06T01:33:38.792Z,2.83
2023-03-06T01:34:40.054Z,2.82
2023-03-06T01:35:41.309Z,2.81
2023-03-06T01:36:42.593Z,2.80
2023-03-06T01:37:44.448Z,2.79
2023-03-06T01:38:45.698Z,2.79
2023-03-06T01:39:49.099Z,2.77
2023-03-06T01:40:50.354Z,2.77
2023-03-06T01:41:51.633Z,2.77
2023-03-06T01:42:52.916Z,2.76
2023-03-06T01:43:54.241Z,2.75
2023-03-06T01:45:08.792Z,2.74
2023-03-06T01:46:31.047Z,2.75
2023-03-06T01:47:32.609Z,2.73
2023-03-06T01:48:33.952Z,2.70
2023-03-06T01:49:37.182Z,2.68
2023-03-06T01:50:38.512Z,2.69
2023-03-06T01:51:42.544Z,2.68
2023-03-06T01:52:46.908Z,2.67
2023-03-06T01:53:49.455Z,2.66
2023-03-06T01:54:54.311Z,2.67
2023-03-06T01:55:57.264Z,2.66
2023-03-06T01:57:24.770Z,2.66
2023-03-06T01:58:26.015Z,2.66
2023-03-06T01:59:28.431Z,2.66
2023-03-06T02:00:30.571Z,2.65
2023-03-06T02:01:32.336Z,2.65
2023-03-06T02:02:33.727Z,2.66
2023-03-06T02:03:36.132Z,2.65
2023-03-06T02:04:39.320Z,2.60
2023-03-06T02:05:41.313Z,2.65
2023-03-06T02:06:43.526Z,2.62
2023-03-06T02:07:45.762Z,2.63
2023-03-06T02:08:49.542Z,2.62
2023-03-06T02:09:50.836Z,2.61
2023-03-06T02:10:58.043Z,2.60
2023-03-06T02:12:00.368Z,2.60
2023-03-06T02:13:01.770Z,2.60
2023-03-06T02:14:03.245Z,2.59
2023-03-06T02:15:04.834Z,2.56
2023-03-06T02:16:07.112Z,2.57
2023-03-06T02:17:10.388Z,2.55
2023-03-06T02:18:13.399Z,2.56
2023-03-06T02:19:19.077Z,2.56
2023-03-06T02:20:34.068Z,2.58
2023-03-06T02:21:36.416Z,2.58
2023-03-06T02:22:44.267Z,2.59
2023-03-06T02:23:51.427Z,2.58
2023-03-06T02:24:52.605Z,2.57
2023-03-06T02:25:54.309Z,2.56
2023-03-06T02:26:56.457Z,2.60
2023-03-06T02:27:57.763Z,2.59
2023-03-06T02:28:59.057Z,2.58
2023-03-06T02:30:04.699Z,2.58
2023-03-06T02:31:06.607Z,2.58
2023-03-06T02:32:07.890Z,2.58
2023-03-06T02:33:16.501Z,2.59
2023-03-06T02:34:20.840Z,2.58
2023-03-06T02:35:23.743Z,2.59
2023-03-06T02:36:25.011Z,2.59
2023-03-06T02:37:27.364Z,2.58
2023-03-06T02:38:31.570Z,2.58
2023-03-06T02:39:33.862Z,2.56
2023-03-06T02:40:35.363Z,2.58
2023-03-06T02:41:36.681Z,2.56
2023-03-06T02:42:38.006Z,2.56
2023-03-06T02:43:40.637Z,2.54
2023-03-06T02:44:42.003Z,2.55
2023-03-06T02:45:45.059Z,2.54
2023-03-06T02:46:46.343Z,2.55
2023-03-06T02:47:47.674Z,2.55
2023-03-06T02:48:48.890Z,2.53
2023-03-06T02:49:50.140Z,2.53
2023-03-06T02:50:52.452Z,2.52
2023-03-06T02:51:53.697Z,2.50
2023-03-06T02:52:54.938Z,2.51
2023-03-06T02:53:56.214Z,2.51
2023-03-06T02:54:57.426Z,2.50
2023-03-06T02:55:58.692Z,2.50
2023-03-06T02:57:00.037Z,2.51
2023-03-06T02:58:01.790Z,2.50
2023-03-06T02:59:03.755Z,2.52
2023-03-06T03:00:05.367Z,2.53
2023-03-06T03:01:06.610Z,2.53
2023-03-06T03:02:08.636Z,2.52
2023-03-06T03:03:09.915Z,2.52
2023-03-06T03:04:11.143Z,2.54
2023-03-06T03:05:13.629Z,2.52
2023-03-06T03:06:17.392Z,2.53
2023-03-06T03:07:19.150Z,2.51
2023-03-06T03:08:21.317Z,2.54
2023-03-06T03:09:25.131Z,2.54
2023-03-06T03:10:26.681Z,2.52
2023-03-06T03:11:28.090Z,2.51
2023-03-06T03:12:29.790Z,2.55
2023-03-06T03:13:31.051Z,2.57
2023-03-06T03:14:32.717Z,2.57
2023-03-06T03:15:34.052Z,2.58
2023-03-06T03:16:36.276Z,2.57
2023-03-06T03:17:39.739Z,2.57
2023-03-06T03:18:41.484Z,2.56
2023-03-06T03:19:42.749Z,2.55
2023-03-06T03:20:44.001Z,2.55
2023-03-06T03:21:45.341Z,2.54
2023-03-06T03:22:50.411Z,2.54
2023-03-06T03:23:51.612Z,2.52
2023-03-06T03:24:52.872Z,2.54
2023-03-06T03:25:55.337Z,2.52
2023-03-06T03:26:56.679Z,2.53
2023-03-06T03:27:58.942Z,2.52
2023-03-06T03:29:00.902Z,2.52
2023-03-06T03:30:02.195Z,2.51
2023-03-06T03:31:04.482Z,2.53
2023-03-06T03:32:06.165Z,2.55
2023-03-06T03:33:07.960Z,2.54
2023-03-06T03:34:09.534Z,2.52
2023-03-06T03:35:13.412Z,2.55
2023-03-06T03:36:15.426Z,2.53
2023-03-06T03:37:20.199Z,2.54
2023-03-06T03:38:21.446Z,2.52
2023-03-06T03:39:22.700Z,2.51
2023-03-06T03:40:24.054Z,2.51
2023-03-06T03:41:25.900Z,2.51
2023-03-06T03:42:27.154Z,2.52
2023-03-06T03:43:28.944Z,2.50
2023-03-06T03:44:30.732Z,2.49
2023-03-06T03:45:32.488Z,2.49
2023-03-06T03:46:33.991Z,2.49
2023-03-06T03:47:36.667Z,2.51
2023-03-06T03:48:37.948Z,2.55
2023-03-06T03:49:40.158Z,2.53
2023-03-06T03:50:41.678Z,2.51
2023-03-06T03:51:43.051Z,2.49
2023-03-06T03:52:44.552Z,2.47
2023-03-06T03:53:47.109Z,2.49
2023-03-06T03:54:51.762Z,2.50
2023-03-06T03:55:53.048Z,2.47
2023-03-06T03:56:55.699Z,2.44
2023-03-06T03:58:04.411Z,2.43
2023-03-06T03:59:06.280Z,2.42
2023-03-06T04:00:14.163Z,2.42
2023-03-06T04:01:15.415Z,2.41
2023-03-06T04:02:16.911Z,2.38
2023-03-06T04:03:26.229Z,2.36
2023-03-06T04:04:27.518Z,2.37
2023-03-06T04:05:28.858Z,2.34
2023-03-06T04:06:30.493Z,2.32
2023-03-06T04:07:31.740Z,2.31
2023-03-06T04:08:32.984Z,2.31
2023-03-06T04:09:34.405Z,2.31
2023-03-06T04:10:35.625Z,2.30
2023-03-06T04:11:37.477Z,2.30
2023-03-06T04:12:38.984Z,2.30
2023-03-06T04:13:40.375Z,2.29
2023-03-06T04:14:41.919Z,2.28
2023-03-06T04:15:43.243Z,2.25
2023-03-06T04:16:45.513Z,2.25
2023-03-06T04:17:47.082Z,2.23
2023-03-06T04:18:51.774Z,2.22
2023-03-06T04:19:55.129Z,2.23
2023-03-06T04:20:57.239Z,2.22
2023-03-06T04:21:58.562Z,2.22
2023-03-06T04:23:00.320Z,2.21
2023-03-06T04:24:01.665Z,2.21
2023-03-06T04:25:02.985Z,2.21
2023-03-06T04:26:04.644Z,2.21
2023-03-06T04:27:05.907Z,2.20
2023-03-06T04:28:07.497Z,2.19
2023-03-06T04:29:08.937Z,2.19
2023-03-06T04:30:10.641Z,2.18
2023-03-06T04:31:12.618Z,2.17
2023-03-06T04:32:14.137Z,2.18
2023-03-06T04:33:15.453Z,2.17
2023-03-06T04:34:17.696Z,2.18
2023-03-06T04:35:20.131Z,2.16
2023-03-06T04:36:31.658Z,2.17
2023-03-06T04:37:36.936Z,2.15
2023-03-06T04:38:38.727Z,2.13
2023-03-06T04:39:40.147Z,2.12
2023-03-06T04:40:42.927Z,2.12
2023-03-06T04:41:45.148Z,2.11
2023-03-06T04:42:46.464Z,2.11
2023-03-06T04:43:47.777Z,2.12
2023-03-06T04:44:48.988Z,2.11
2023-03-06T04:45:50.342Z,2.11
2023-03-06T04:46:51.573Z,2.12
2023-03-06T04:47:52.851Z,2.10
2023-03-06T04:48:54.126Z,2.11
2023-03-06T04:49:55.390Z,2.12
2023-03-06T04:50:56.618Z,2.11
2023-03-06T04:51:57.928Z,2.10
2023-03-06T04:53:00.707Z,2.12
2023-03-06T04:54:02.387Z,2.11
2023-03-06T04:55:03.852Z,2.12
2023-03-06T04:56:05.760Z,2.13
2023-03-06T04:57:06.965Z,2.14
2023-03-06T04:58:08.210Z,2.15
2023-03-06T04:59:09.423Z,2.13
2023-03-06T05:00:15.664Z,2.19
2023-03-06T05:01:17.014Z,2.18
2023-03-06T05:02:18.388Z,2.17
2023-03-06T05:03:19.721Z,2.17
2023-03-06T05:04:21.025Z,2.16
2023-03-06T05:05:22.217Z,2.17
2023-03-06T05:06:23.461Z,2.20
2023-03-06T05:07:24.755Z,2.20
2023-03-06T05:08:25.948Z,2.19
2023-03-06T05:09:27.137Z,2.20
2023-03-06T05:10:28.378Z,2.20
2023-03-06T05:11:29.670Z,2.19
2023-03-06T05:12:30.941Z,2.18
2023-03-06T05:13:32.324Z,2.18
2023-03-06T05:14:33.573Z,2.17
2023-03-06T05:15:34.924Z,2.18
2023-03-06T05:16:36.233Z,2.17
2023-03-06T05:17:37.608Z,2.17
2023-03-06T05:18:38.856Z,2.16
2023-03-06T05:19:40.162Z,2.16
2023-03-06T05:20:41.495Z,2.18
2023-03-06T05:21:42.760Z,2.17
2023-03-06T05:22:44.193Z,2.18
2023-03-06T05:23:45.431Z,2.17
2023-03-06T05:24:46.870Z,2.17
2023-03-06T05:25:48.082Z,2.16
2023-03-06T05:26:49.265Z,2.19
2023-03-06T05:27:50.503Z,2.19
2023-03-06T05:28:51.856Z,2.22
2023-03-06T05:29:53.266Z,2.22
2023-03-06T05:30:54.461Z,2.24
2023-03-06T05:31:55.836Z,2.24
2023-03-06T05:32:57.197Z,2.23
2023-03-06T05:33:58.521Z,2.22
2023-03-06T05:34:59.854Z,2.20
2023-03-06T05:36:01.174Z,2.21
2023-03-06T05:37:02.422Z,2.22
2023-03-06T05:38:04.054Z,2.22
2023-03-06T05:39:05.384Z,2.21
2023-03-06T05:40:06.934Z,2.23
2023-03-06T05:41:10.711Z,2.21
2023-03-06T05:42:11.956Z,2.21
2023-03-06T05:43:13.204Z,2.21
2023-03-06T05:44:14.441Z,2.20
2023-03-06T05:45:15.736Z,2.20
2023-03-06T05:46:17.035Z,2.19
2023-03-06T05:47:18.357Z,2.19
2023-03-06T05:48:19.561Z,2.19
2023-03-06T05:49:20.804Z,2.20
2023-03-06T05:50:22.141Z,2.20
2023-03-06T05:51:23.784Z,2.21
2023-03-06T05:52:25.016Z,2.19
2023-03-06T05:53:26.341Z,2.20
2023-03-06T05:54:27.580Z,2.21
2023-03-06T05:55:28.927Z,2.21
2023-03-06T05:56:30.266Z,2.22
2023-03-06T05:57:31.619Z,2.22
2023-03-06T05:58:32.970Z,2.22
2023-03-06T05:59:34.353Z,2.23
2023-03-06T06:00:35.943Z,2.25
2023-03-06T06:01:37.352Z,2.24
2023-03-06T06:02:38.734Z,2.23
2023-03-06T06:03:40.273Z,2.24
2023-03-06T06:04:41.532Z,2.23
2023-03-06T06:05:42.773Z,2.24
2023-03-06T06:06:44.012Z,2.26
2023-03-06T06:07:45.261Z,2.25
2023-03-06T06:08:46.536Z,2.26
2023-03-06T06:09:47.748Z,2.25
2023-03-06T06:10:50.943Z,2.28
2023-03-06T06:11:54.295Z,2.29
2023-03-06T06:12:55.544Z,2.29
2023-03-06T06:13:56.749Z,2.29
2023-03-06T06:14:58.069Z,2.30
2023-03-06T06:15:59.326Z,2.30
2023-03-06T06:17:00.640Z,2.29
2023-03-06T06:18:01.877Z,2.29
2023-03-06T06:19:03.238Z,2.29
2023-03-06T06:20:04.659Z,2.31
2023-03-06T06:21:06.609Z,2.31
2023-03-06T06:22:07.851Z,2.33
2023-03-06T06:23:10.597Z,2.35
2023-03-06T06:24:12.050Z,2.36
2023-03-06T06:25:13.684Z,2.36
2023-03-06T06:26:14.958Z,2.35
2023-03-06T06:27:16.214Z,2.35
2023-03-06T06:28:17.452Z,2.36
2023-03-06T06:29:18.800Z,2.35
2023-03-06T06:30:20.265Z,2.36
2023-03-06T06:31:21.523Z,2.36
2023-03-06T06:32:22.855Z,2.38
2023-03-06T06:33:24.109Z,2.38
2023-03-06T06:34:25.931Z,2.41
2023-03-06T06:35:27.180Z,2.41
2023-03-06T06:36:28.565Z,2.44
2023-03-06T06:37:30.171Z,2.45
2023-03-06T06:38:31.683Z,2.47
2023-03-06T06:39:32.962Z,2.50
2023-03-06T06:40:34.668Z,2.50
2023-03-06T06:41:53.666Z,2.52
2023-03-06T06:42:57.271Z,2.58
2023-03-06T06:43:59.119Z,2.55
2023-03-06T06:45:00.492Z,2.56
2023-03-06T06:46:24.208Z,2.56
2023-03-06T06:47:25.056Z,2.58
2023-03-06T06:48:26.916Z,2.59
2023-03-06T06:49:28.225Z,2.63
2023-03-06T06:50:29.636Z,2.63
2023-03-06T06:51:31.276Z,2.62
2023-03-06T06:52:32.553Z,2.63
2023-03-06T06:53:33.749Z,2.66
2023-03-06T06:54:35.016Z,2.67
2023-03-06T06:55:36.835Z,2.70
2023-03-06T06:56:38.317Z,2.70
2023-03-06T06:57:40.173Z,2.71
2023-03-06T06:58:41.396Z,2.72
2023-03-06T06:59:42.643Z,2.72
2023-03-06T07:00:43.977Z,2.78
2023-03-06T07:01:45.279Z,2.79
2023-03-06T07:02:46.596Z,2.82
2023-03-06T07:03:47.964Z,2.85
2023-03-06T07:05:03.054Z,2.87
2023-03-06T07:06:05.945Z,2.84
2023-03-06T07:07:07.169Z,2.85
2023-03-06T07:08:08.848Z,2.85
2023-03-06T07:09:10.638Z,2.82
2023-03-06T07:10:14.067Z,2.83
2023-03-06T07:11:16.706Z,2.85
2023-03-06T07:12:17.919Z,2.84
2023-03-06T07:13:19.370Z,2.84
2023-03-06T07:14:20.606Z,2.84
2023-03-06T07:15:21.969Z,2.86
2023-03-06T07:16:23.305Z,2.87
2023-03-06T07:17:24.652Z,2.90
2023-03-06T07:18:25.887Z,2.91
2023-03-06T07:19:27.082Z,2.91
2023-03-06T07:20:28.422Z,2.90
2023-03-06T07:21:29.772Z,2.93
2023-03-06T07:22:41.424Z,2.96
2023-03-06T07:23:49.959Z,2.96
2023-03-06T07:24:51.175Z,3.02
2023-03-06T07:25:53.164Z,3.03
2023-03-06T07:26:54.463Z,3.05
2023-03-06T07:27:55.682Z,3.06
2023-03-06T07:28:56.896Z,3.10
2023-03-06T07:29:58.182Z,3.11
2023-03-06T07:30:59.642Z,3.14
2023-03-06T07:32:00.958Z,3.18
2023-03-06T07:33:02.290Z,3.23
2023-03-06T07:34:04.995Z,3.25
2023-03-06T07:35:19.805Z,3.29
2023-03-06T07:36:22.869Z,3.31
2023-03-06T07:37:24.089Z,3.34
2023-03-06T07:38:25.402Z,3.35
2023-03-06T07:39:26.657Z,3.35
2023-03-06T07:40:27.998Z,3.36
2023-03-06T07:41:29.304Z,3.39
2023-03-06T07:42:30.666Z,3.47
2023-03-06T07:43:35.768Z,3.48
2023-03-06T07:44:40.786Z,3.44
2023-03-06T07:45:42.052Z,3.49
2023-03-06T07:46:43.278Z,3.49
2023-03-06T07:47:45.182Z,3.50
2023-03-06T07:48:46.412Z,3.51
2023-03-06T07:49:47.672Z,3.54
2023-03-06T07:50:54.849Z,3.57
2023-03-06T07:51:56.355Z,3.59
2023-03-06T07:52:57.558Z,3.61
2023-03-06T07:53:58.802Z,3.63
2023-03-06T07:55:00.144Z,3.64
2023-03-06T07:56:03.188Z,3.63
2023-03-06T07:57:04.393Z,3.63
2023-03-06T07:58:05.586Z,3.66
2023-03-06T07:59:06.845Z,3.67
2023-03-06T08:00:09.987Z,3.71
2023-03-06T08:01:18.543Z,3.73
2023-03-06T08:02:19.773Z,3.77
2023-03-06T08:03:21.030Z,3.81
2023-03-06T08:04:22.325Z,3.88
2023-03-06T08:05:23.512Z,3.93
2023-03-06T08:06:25.534Z,3.95
2023-03-06T08:07:28.476Z,4.00
2023-03-06T08:08:29.701Z,4.03
2023-03-06T08:09:31.282Z,4.08
2023-03-06T08:10:32.745Z,4.12
2023-03-06T08:11:33.936Z,4.14
2023-03-06T08:12:35.223Z,4.20
2023-03-06T08:13:36.494Z,4.23
2023-03-06T08:14:37.718Z,4.27
2023-03-06T08:15:38.892Z,4.27
2023-03-06T08:16:40.215Z,4.31
2023-03-06T08:17:41.491Z,4.32
2023-03-06T08:18:45.065Z,4.31
2023-03-06T08:19:47.380Z,4.37
2023-03-06T08:20:48.601Z,4.44
2023-03-06T08:21:49.781Z,4.48
2023-03-06T08:22:51.088Z,4.48
2023-03-06T08:23:52.769Z,4.50
2023-03-06T08:24:54.993Z,4.54
2023-03-06T08:25:57.404Z,4.55
2023-03-06T08:26:58.619Z,4.61
2023-03-06T08:28:00.477Z,4.63
2023-03-06T08:29:02.162Z,4.66
2023-03-06T08:30:03.745Z,4.70
2023-03-06T08:31:23.632Z,4.76
2023-03-06T08:32:24.980Z,4.79
2023-03-06T08:33:26.224Z,4.81
2023-03-06T08:34:27.467Z,4.85
2023-03-06T08:35:28.771Z,4.85
2023-03-06T08:36:30.270Z,4.94
2023-03-06T08:37:31.563Z,4.93
2023-03-06T08:38:32.838Z,4.99
2023-03-06T08:39:34.043Z,4.96
2023-03-06T08:40:35.278Z,4.95
2023-03-06T08:41:36.974Z,5.00
2023-03-06T08:42:38.197Z,5.08
2023-03-06T08:43:39.415Z,5.11
2023-03-06T08:44:40.718Z,5.16
2023-03-06T08:45:42.018Z,5.16
2023-03-06T08:46:43.294Z,4.99
2023-03-06T08:47:44.606Z,5.05
2023-03-06T08:48:45.851Z,5.04
2023-03-06T08:49:47.393Z,5.10
2023-03-06T08:50:48.847Z,5.15
2023-03-06T08:51:50.092Z,5.16
2023-03-06T08:52:51.290Z,5.14
2023-03-06T08:53:52.581Z,5.14
2023-03-06T08:54:53.827Z,5.15
2023-03-06T08:55:55.109Z,5.17
2023-03-06T08:56:56.332Z,5.16
2023-03-06T08:57:57.524Z,5.22
2023-03-06T08:58:59.996Z,5.15
2023-03-06T09:00:01.288Z,5.18
2023-03-06T09:01:02.606Z,5.16
2023-03-06T09:02:03.925Z,5.22
2023-03-06T09:03:05.686Z,5.25
2023-03-06T09:04:08.586Z,5.24
2023-03-06T09:05:09.892Z,5.26
2023-03-06T09:06:11.583Z,5.29
2023-03-06T09:07:12.814Z,5.31
2023-03-06T09:08:14.068Z,5.28
2023-03-06T09:09:15.461Z,5.31
2023-03-06T09:10:18.579Z,5.36
2023-03-06T09:11:20.512Z,5.31
2023-03-06T09:12:21.743Z,5.23
2023-03-06T09:13:22.976Z,5.24
2023-03-06T09:14:24.246Z,5.20
2023-03-06T09:15:25.704Z,5.22
2023-03-06T09:16:27.041Z,5.15
2023-03-06T09:17:28.286Z,5.18
2023-03-06T09:18:29.586Z,5.20
2023-03-06T09:19:30.840Z,5.21
2023-03-06T09:20:32.427Z,5.19
2023-03-06T09:21:33.650Z,5.16
2023-03-06T09:22:35.421Z,5.18
2023-03-06T09:23:37.557Z,5.20
2023-03-06T09:24:38.890Z,5.27
2023-03-06T09:25:40.145Z,5.21
2023-03-06T09:26:46.223Z,5.17
2023-03-06T09:27:55.458Z,5.17
2023-03-06T09:29:03.285Z,5.17
2023-03-06T09:30:05.896Z,5.18
2023-03-06T09:31:08.255Z,5.22
2023-03-06T09:32:11.807Z,5.18
2023-03-06T09:33:13.350Z,5.24
2023-03-06T09:34:14.653Z,5.21
2023-03-06T09:35:15.872Z,5.21
2023-03-06T09:36:18.429Z,5.11
2023-03-06T09:37:19.689Z,5.17
2023-03-06T09:38:22.129Z,5.19
2023-03-06T09:39:23.623Z,5.14
2023-03-06T09:40:43.737Z,5.07
2023-03-06T09:41:46.556Z,5.04
2023-03-06T09:42:47.766Z,5.00
2023-03-06T09:43:50.362Z,5.08
2023-03-06T09:44:54.331Z,5.06
2023-03-06T09:45:56.354Z,5.08
2023-03-06T09:47:18.788Z,5.14
2023-03-06T09:48:22.303Z,5.06
2023-03-06T09:49:32.652Z,5.03
2023-03-06T09:50:50.966Z,5.01
2023-03-06T09:51:54.996Z,4.92
2023-03-06T09:53:15.063Z,4.93
2023-03-06T09:54:16.564Z,4.97
2023-03-06T09:55:19.218Z,5.05
2023-03-06T09:56:22.106Z,5.03
2023-03-06T09:57:26.502Z,5.03
2023-03-06T09:58:29.044Z,5.03
2023-03-06T09:59:31.402Z,5.06
2023-03-06T10:00:38.666Z,5.10
2023-03-06T10:01:41.904Z,5.15
2023-03-06T10:02:49.336Z,5.17
2023-03-06T10:03:54.011Z,5.16
2023-03-06T10:05:01.458Z,5.14
2023-03-06T10:06:09.277Z,5.06
2023-03-06T10:07:13.828Z,5.11
2023-03-06T10:08:44.325Z,5.13
2023-03-06T10:09:48.133Z,5.17
2023-03-06T10:11:00.014Z,5.15
2023-03-06T10:12:04.508Z,5.14
2023-03-06T10:13:11.539Z,5.19
2023-03-06T10:14:18.709Z,5.17
2023-03-06T10:15:23.921Z,5.21
2023-03-06T10:16:27.288Z,5.25
2023-03-06T10:17:33.874Z,5.26
2023-03-06T10:18:35.065Z,5.25
2023-03-06T10:19:37.243Z,5.29
2023-03-06T10:20:47.658Z,5.27
2023-03-06T10:22:09.890Z,5.28
2023-03-06T10:23:29.831Z,5.31
2023-03-06T10:24:50.427Z,5.31
2023-03-06T10:25:51.622Z,5.42
2023-03-06T10:26:59.139Z,5.49
2023-03-06T10:28:08.873Z,5.53
2023-03-06T10:29:13.105Z,5.45
2023-03-06T10:30:23.656Z,5.44
2023-03-06T10:31:26.146Z,5.44
2023-03-06T10:32:39.483Z,5.43
2023-03-06T10:33:52.530Z,5.43
2023-03-06T10:34:54.835Z,5.35
2023-03-06T10:35:56.494Z,5.35
2023-03-06T10:36:58.462Z,5.47
2023-03-06T10:38:12.860Z,5.54
2023-03-06T10:39:16.145Z,5.49
2023-03-06T10:40:20.139Z,5.53
2023-03-06T10:41:21.372Z,5.51
2023-03-06T10:42:23.591Z,5.45
2023-03-06T10:43:24.828Z,5.50
2023-03-06T10:44:26.040Z,5.47
2023-03-06T10:45:27.946Z,5.53
2023-03-06T10:46:31.527Z,5.59
2023-03-06T10:47:33.185Z,5.65
2023-03-06T10:48:35.143Z,5.72
2023-03-06T10:49:37.437Z,5.66
2023-03-06T10:50:38.717Z,5.73
2023-03-06T10:51:40.023Z,5.70
2023-03-06T10:52:41.304Z,5.79
2023-03-06T10:53:51.578Z,5.82
2023-03-06T10:55:04.805Z,5.93
2023-03-06T10:56:06.042Z,6.09
2023-03-06T10:57:26.004Z,6.19
2023-03-06T10:58:29.217Z,6.14
2023-03-06T10:59:30.421Z,6.12
2023-03-06T11:00:32.933Z,6.20
2023-03-06T11:01:34.776Z,6.27
2023-03-06T11:02:37.388Z,6.38
2023-03-06T11:03:38.577Z,6.41
2023-03-06T11:04:41.035Z,6.34
2023-03-06T11:06:00.854Z,6.39
2023-03-06T11:07:04.860Z,6.41
2023-03-06T11:08:19.556Z,6.47
2023-03-06T11:09:24.811Z,6.53
2023-03-06T11:10:26.845Z,6.59
2023-03-06T11:11:37.116Z,6.68
2023-03-06T11:12:40.071Z,6.70
2023-03-06T11:13:42.592Z,6.72
2023-03-06T11:14:43.887Z,6.69
2023-03-06T11:16:02.379Z,6.76
2023-03-06T11:17:03.666Z,6.91
2023-03-06T11:18:23.991Z,6.93
2023-03-06T11:19:27.036Z,6.83
2023-03-06T11:20:48.591Z,6.82
2023-03-06T11:22:00.932Z,6.79
2023-03-06T11:23:02.175Z,6.73
2023-03-06T11:24:11.564Z,6.75
2023-03-06T11:25:17.605Z,6.84
2023-03-06T11:26:24.416Z,6.85
2023-03-06T11:27:29.095Z,6.92
2023-03-06T11:28:33.306Z,6.77
2023-03-06T11:29:39.884Z,6.84
2023-03-06T11:30:43.805Z,6.71
2023-03-06T11:31:52.465Z,6.75
2023-03-06T11:32:57.314Z,6.77
2023-03-06T11:34:04.291Z,6.77
2023-03-06T11:35:09.839Z,6.85
2023-03-06T11:36:23.523Z,6.90
2023-03-06T11:37:28.995Z,6.87
2023-03-06T11:38:38.652Z,6.85
2023-03-06T11:39:56.482Z,6.92
2023-03-06T11:40:59.874Z,6.97
2023-03-06T11:42:05.194Z,7.10
2023-03-06T11:43:18.870Z,7.16
2023-03-06T11:44:25.542Z,7.21
2023-03-06T11:45:29.954Z,7.32
2023-03-06T11:46:36.513Z,7.46
2023-03-06T11:47:53.953Z,7.39
2023-03-06T11:49:05.110Z,7.39
2023-03-06T11:50:21.487Z,7.35
2023-03-06T11:51:31.257Z,7.34
2023-03-06T11:52:43.027Z,7.37
2023-03-06T11:53:44.319Z,7.37
2023-03-06T11:54:47.780Z,7.32
2023-03-06T11:56:14.197Z,7.30
2023-03-06T11:57:17.519Z,7.26
2023-03-06T11:58:36.589Z,7.24
2023-03-06T11:59:55.899Z,7.27
2023-03-06T12:01:00.133Z,7.38
2023-03-06T12:02:20.248Z,7.46
2023-03-06T12:03:21.432Z,7.54
2023-03-06T12:04:33.822Z,7.59
2023-03-06T12:05:38.223Z,7.45
2023-03-06T12:06:39.506Z,7.47
2023-03-06T12:07:56.700Z,7.53
2023-03-06T12:09:09.693Z,7.50
2023-03-06T12:10:18.668Z,7.62
2023-03-06T12:11:24.199Z,7.74
2023-03-06T12:12:25.400Z,7.77
2023-03-06T12:13:33.913Z,7.72
2023-03-06T12:14:42.479Z,7.61
2023-03-06T12:15:51.801Z,7.61
2023-03-06T12:17:13.440Z,7.68
2023-03-06T12:18:20.807Z,7.70
2023-03-06T12:19:27.725Z,7.75
2023-03-06T12:20:31.966Z,7.67
2023-03-06T12:21:51.408Z,7.72
2023-03-06T12:22:58.218Z,7.70
2023-03-06T12:24:08.159Z,7.71
2023-03-06T12:25:24.884Z,7.64
2023-03-06T12:26:29.076Z,7.62
2023-03-06T12:27:49.381Z,7.64
2023-03-06T12:29:06.018Z,7.78
2023-03-06T12:30:13.235Z,7.76
2023-03-06T12:31:20.870Z,7.85
2023-03-06T12:32:27.910Z,7.76
2023-03-06T12:33:45.433Z,7.71
2023-03-06T12:34:58.648Z,7.67
2023-03-06T12:36:22.648Z,7.76
2023-03-06T12:37:47.023Z,7.83
2023-03-06T12:38:59.093Z,7.93
2023-03-06T12:40:13.053Z,7.89
2023-03-06T12:41:40.681Z,7.91
2023-03-06T12:42:44.750Z,7.93
2023-03-06T12:43:55.711Z,7.98
2023-03-06T12:45:03.199Z,7.94
2023-03-06T12:46:13.482Z,7.88
2023-03-06T12:47:17.247Z,7.83
2023-03-06T12:48:20.784Z,7.83
2023-03-06T12:49:31.811Z,7.84
2023-03-06T12:50:35.272Z,7.83
2023-03-06T12:51:36.884Z,7.84
2023-03-06T12:52:41.357Z,7.93
2023-03-06T12:53:43.276Z,7.87
2023-03-06T12:54:45.012Z,7.92
2023-03-06T12:55:47.804Z,7.76
2023-03-06T12:56:50.391Z,7.83
2023-03-06T12:57:51.860Z,7.71
2023-03-06T12:58:54.069Z,7.75
2023-03-06T12:59:55.348Z,7.79
2023-03-06T13:01:04.852Z,7.81
2023-03-06T13:02:22.523Z,7.92
2023-03-06T13:03:49.815Z,7.79
2023-03-06T13:05:11.331Z,7.82
2023-03-06T13:06:12.548Z,7.87
2023-03-06T13:07:28.863Z,7.75
2023-03-06T13:08:30.177Z,7.71
2023-03-06T13:09:50.090Z,7.69
2023-03-06T13:11:12.697Z,7.70
2023-03-06T13:12:19.872Z,7.77
2023-03-06T13:13:41.186Z,7.84
2023-03-06T13:14:53.788Z,7.96
2023-03-06T13:16:04.721Z,8.04
2023-03-06T13:17:24.020Z,7.91
2023-03-06T13:18:25.238Z,7.87
2023-03-06T13:19:26.619Z,7.70
2023-03-06T13:20:34.645Z,7.65
2023-03-06T13:21:42.057Z,7.70
2023-03-06T13:22:44.151Z,7.81
2023-03-06T13:23:49.828Z,7.88
2023-03-06T13:25:11.028Z,7.90
2023-03-06T13:26:35.114Z,7.93
2023-03-06T13:27:54.385Z,7.87
2023-03-06T13:28:56.392Z,7.96
2023-03-06T13:30:04.433Z,7.99
2023-03-06T13:31:07.332Z,7.94
2023-03-06T13:32:13.240Z,7.94
2023-03-06T13:33:29.464Z,7.92
2023-03-06T13:34:36.495Z,7.84
2023-03-06T13:35:40.610Z,7.86
2023-03-06T13:36:41.837Z,7.63
2023-03-06T13:37:48.250Z,7.68
2023-03-06T13:38:49.489Z,7.69
2023-03-06T13:39:53.370Z,7.71
2023-03-06T13:41:14.524Z,7.74
2023-03-06T13:42:25.347Z,7.66
2023-03-06T13:43:26.982Z,7.73
2023-03-06T13:44:28.332Z,7.89
2023-03-06T13:45:39.263Z,7.73
2023-03-06T13:46:40.497Z,7.61
2023-03-06T13:48:15.599Z,7.61
2023-03-06T13:49:08.847Z,7.71
2023-03-06T13:50:12.832Z,7.78
2023-03-06T13:51:15.818Z,7.69
2023-03-06T13:52:32.993Z,7.65
2023-03-06T13:53:47.045Z,7.52
2023-03-06T13:54:48.393Z,7.60
2023-03-06T13:55:52.447Z,7.53
2023-03-06T13:57:03.022Z,7.57
2023-03-06T13:58:04.215Z,7.55
2023-03-06T13:59:17.640Z,7.58
2023-03-06T14:00:18.896Z,7.55
2023-03-06T14:01:49.385Z,7.45
2023-03-06T14:02:53.662Z,7.42
2023-03-06T14:04:03.132Z,7.46
2023-03-06T14:05:11.647Z,7.37
2023-03-06T14:06:31.678Z,7.32
2023-03-06T14:07:35.361Z,7.33
2023-03-06T14:08:40.357Z,7.30
2023-03-06T14:09:43.204Z,7.34
2023-03-06T14:10:45.727Z,7.34
2023-03-06T14:11:50.562Z,7.42